Lincoln Heights, California
Current Conditions -  °F | °C
As of 2:47 PM on Tuesday 27 Jan 2015 (Local Time) from KCQT Reporting Station
Clear Clear  
Wind Chill: 70°   Ceiling: Unl
Heat Index: 70°   Visibility: 10mi
Dew Point: 50°   Wind: 5mph
Humidity: 49%   Direction: NA
Pressure: 30.15"   Gusts: NA
Location:  34.0791°N, 118.208°W
Report Text: KCQT 272247Z AUTO VRB04KT 10SM CLR 21/10 A3015 RMK AO2 SLP207 T02110100 $
Loading
Personal Weather Stations






























Interactive Weather Map New forecast layout! Learn more

10-Day Weather Forecast

Advertisements
Track Severe Weather on mobile